createdAt,value
2022-12-13T00:01:34.882Z,-7.21
2022-12-13T00:04:05.571Z,-7.29
2022-12-13T00:06:34.055Z,-7.34
2022-12-13T00:09:01.309Z,-7.31
2022-12-13T00:11:28.650Z,-7.31
2022-12-13T00:13:55.558Z,-7.28
2022-12-13T00:16:24.779Z,-7.26
2022-12-13T00:19:01.513Z,-7.28
2022-12-13T00:21:31.601Z,-7.28
2022-12-13T00:24:00.830Z,-7.31
2022-12-13T00:26:30.282Z,-7.40
2022-12-13T00:29:02.248Z,-7.46
2022-12-13T00:34:19.619Z,-7.51
2022-12-13T00:36:46.898Z,-7.56
2022-12-13T00:39:14.441Z,-7.55
2022-12-13T00:41:41.907Z,-7.57
2022-12-13T00:44:11.799Z,-7.61
2022-12-13T00:46:39.810Z,-7.70
2022-12-13T00:49:06.613Z,-7.75
2022-12-13T00:51:34.653Z,-7.81
2022-12-13T00:54:02.407Z,-7.81
2022-12-13T00:56:32.417Z,-7.88
2022-12-13T00:59:00.334Z,-7.95
2022-12-13T01:01:33.139Z,-7.95
2022-12-13T01:04:02.549Z,-7.96
2022-12-13T01:06:34.288Z,-7.89
2022-12-13T01:09:01.841Z,-7.90
2022-12-13T01:11:28.741Z,-7.83
2022-12-13T01:13:55.553Z,-7.82
2022-12-13T01:16:22.449Z,-7.85
2022-12-13T01:18:49.316Z,-7.92
2022-12-13T01:21:18.924Z,-7.95
2022-12-13T01:23:45.973Z,-8.02
2022-12-13T01:26:16.415Z,-8.08
2022-12-13T01:28:44.191Z,-8.06
2022-12-13T01:31:13.935Z,-8.05
2022-12-13T01:33:42.384Z,-8.05
2022-12-13T01:36:14.538Z,-8.07
2022-12-13T01:38:41.392Z,-8.12
2022-12-13T01:41:17.569Z,-8.20
2022-12-13T01:43:45.217Z,-8.28
2022-12-13T01:46:13.510Z,-8.31
2022-12-13T01:48:56.728Z,-8.28
2022-12-13T01:51:34.359Z,-8.23
2022-12-13T01:54:03.396Z,-8.21
2022-12-13T01:56:36.662Z,-8.23
2022-12-13T01:59:06.898Z,-8.16
2022-12-13T02:01:34.495Z,-8.13
2022-12-13T02:04:01.398Z,-8.11
2022-12-13T02:06:35.709Z,-8.08
2022-12-13T02:09:05.801Z,-8.06
2022-12-13T02:11:35.349Z,-8.16
2022-12-13T02:14:02.663Z,-8.23
2022-12-13T02:16:45.741Z,-8.25
2022-12-13T02:19:38.984Z,-8.27
2022-12-13T02:22:37.000Z,-8.27
2022-12-13T02:25:36.248Z,-8.26
2022-12-13T02:28:31.605Z,-8.27
2022-12-13T02:31:13.093Z,-8.25
2022-12-13T02:34:23.872Z,-8.30
2022-12-13T02:37:02.075Z,-8.35
2022-12-13T02:39:34.305Z,-8.37
2022-12-13T02:42:06.461Z,-8.40
2022-12-13T02:44:43.444Z,-8.48
2022-12-13T02:47:21.977Z,-8.61
2022-12-13T02:49:54.216Z,-8.62
2022-12-13T02:52:24.758Z,-8.56
2022-12-13T02:54:54.497Z,-8.54
2022-12-13T02:57:39.025Z,-8.52
2022-12-13T03:00:21.774Z,-8.57
2022-12-13T03:03:23.645Z,-8.56
2022-12-13T03:06:33.901Z,-8.66
2022-12-13T03:09:45.042Z,-8.66
2022-12-13T03:12:42.602Z,-8.72
2022-12-13T03:15:29.617Z,-8.66
2022-12-13T03:18:06.492Z,-8.65
2022-12-13T03:20:33.542Z,-8.69
2022-12-13T03:23:00.537Z,-8.69
2022-12-13T03:25:32.987Z,-8.69
2022-12-13T03:28:02.944Z,-8.71
2022-12-13T03:30:32.485Z,-8.73
2022-12-13T03:32:59.834Z,-8.70
2022-12-13T03:35:34.754Z,-8.66
2022-12-13T03:38:12.465Z,-8.72
2022-12-13T03:40:51.917Z,-8.75
2022-12-13T03:43:22.497Z,-8.72
2022-12-13T03:45:53.372Z,-8.68
2022-12-13T03:48:22.006Z,-8.65
2022-12-13T03:50:51.470Z,-8.67
2022-12-13T03:53:23.231Z,-8.69
2022-12-13T03:56:01.520Z,-8.68
2022-12-13T03:58:35.739Z,-8.67
2022-12-13T04:01:05.808Z,-8.64
2022-12-13T04:03:33.139Z,-8.69
2022-12-13T04:05:59.954Z,-8.67
2022-12-13T04:08:26.806Z,-8.72
2022-12-13T04:10:53.724Z,-8.79
2022-12-13T04:13:35.408Z,-8.75
2022-12-13T04:16:03.450Z,-8.89
2022-12-13T04:18:30.474Z,-9.02
2022-12-13T04:20:58.565Z,-9.07
2022-12-13T04:23:25.442Z,-9.10
2022-12-13T04:25:52.409Z,-9.06
2022-12-13T04:28:22.103Z,-9.06
2022-12-13T04:30:53.052Z,-9.09
2022-12-13T04:33:22.713Z,-9.07
2022-12-13T04:35:50.366Z,-9.02
2022-12-13T04:38:17.789Z,-9.02
2022-12-13T04:40:44.696Z,-9.00
2022-12-13T04:43:11.787Z,-8.99
2022-12-13T04:45:38.873Z,-8.99
2022-12-13T04:48:06.085Z,-9.00
2022-12-13T04:50:33.272Z,-9.05
2022-12-13T04:53:00.195Z,-9.06
2022-12-13T04:55:27.089Z,-9.05
2022-12-13T04:57:53.950Z,-9.04
2022-12-13T05:00:22.548Z,-9.04
2022-12-13T05:02:49.445Z,-9.00
2022-12-13T05:05:16.723Z,-9.00
2022-12-13T05:07:43.924Z,-9.01
2022-12-13T05:10:12.076Z,-9.06
2022-12-13T05:12:39.399Z,-9.14
2022-12-13T05:15:06.981Z,-9.19
2022-12-13T05:17:34.218Z,-9.22
2022-12-13T05:20:01.011Z,-9.23
2022-12-13T05:22:27.924Z,-9.28
2022-12-13T05:24:54.849Z,-9.24
2022-12-13T05:27:24.665Z,-9.21
2022-12-13T05:30:02.705Z,-9.27
2022-12-13T05:32:43.019Z,-9.31
2022-12-13T05:35:22.452Z,-9.24
2022-12-13T05:37:53.208Z,-9.24
2022-12-13T05:40:29.659Z,-9.27
2022-12-13T05:43:01.674Z,-9.32
2022-12-13T05:45:32.858Z,-9.36
2022-12-13T05:47:59.811Z,-9.39
2022-12-13T05:50:26.758Z,-9.48
2022-12-13T05:52:53.647Z,-9.44
2022-12-13T05:55:20.575Z,-9.45
2022-12-13T05:57:50.271Z,-9.43
2022-12-13T06:00:29.759Z,-9.37
2022-12-13T06:03:00.794Z,-9.34
2022-12-13T06:05:29.929Z,-9.30
2022-12-13T06:07:57.997Z,-9.27
2022-12-13T06:10:34.131Z,-9.24
2022-12-13T06:13:21.977Z,-9.23
2022-12-13T06:15:51.937Z,-9.21
2022-12-13T06:18:28.119Z,-9.21
2022-12-13T06:21:00.487Z,-9.21
2022-12-13T06:23:27.852Z,-9.24
2022-12-13T06:25:54.940Z,-9.23
2022-12-13T06:28:21.860Z,-9.23
2022-12-13T06:30:52.523Z,-9.28
2022-12-13T06:33:23.401Z,-9.33
2022-12-13T06:35:52.835Z,-9.40
2022-12-13T06:38:21.959Z,-9.46
2022-12-13T06:41:09.270Z,-9.47
2022-12-13T06:43:36.488Z,-9.49
2022-12-13T06:46:06.254Z,-9.48
2022-12-13T06:48:33.725Z,-9.45
2022-12-13T06:51:05.173Z,-9.48
2022-12-13T06:53:32.209Z,-9.54
2022-12-13T06:56:04.834Z,-9.58
2022-12-13T06:58:32.839Z,-9.62
